Terminal Aerodrome Forecast
Issued by NWS

Home | Current Version | Previous Version | Text Only | Print | Product List | Glossary On
Versions: 1 2 3 4 5 6 7 8 9 10 11 12 13 14 15 16 17 18
000
FTUS44 KLZK 041610 AAA
TAFLLQ
TAF AMD
KLLQ 041610Z 0416/0512 35004KT P6SM OVC005
     FM041800 01005KT 5SM -RA BR OVC009
     FM050000 03003KT P6SM OVC015
     FM050600 04003KT 3SM BR OVC009=

USA.gov is the U.S. government's official web portal to all federal, state and local government web resources and services.